Time;durP1;ratioP1;P1;durP2;ratioP2;P2;SDS_P1;SDS_P2;PMS_P1;PMS_P2;Temp;Humidity;BMP_temperature;BMP_pressure;BME280_temperature;BME280_humidity;BME280_pressure;Samples;Min_cycle;Max_cycle;Signal;HPM_P1;HPM_P2
2024/03/03 00:01:33;;;;;;;14.90;7.35;;;;;;;7.70;100.00;94911.66;5023822;28;20044;-71
2024/03/03 00:03:59;;;;;;;12.32;6.35;;;;;;;7.62;100.00;94911.66;5024855;28;20063;-70
2024/03/03 00:06:24;;;;;;;11.52;6.97;;;;;;;7.89;100.00;94911.25;5015536;28;20046;-71
2024/03/03 00:08:50;;;;;;;10.65;6.00;;;;;;;7.89;100.00;94907.75;5001113;28;20042;-71
2024/03/03 00:11:15;;;;;;;13.05;6.55;;;;;;;7.81;100.00;94910.50;5004140;28;20179;-70
2024/03/03 00:13:41;;;;;;;11.88;6.75;;;;;;;7.79;100.00;94903.84;5023719;28;20130;-70
2024/03/03 00:16:06;;;;;;;12.60;6.35;;;;;;;7.88;100.00;94926.03;5017034;28;20064;-69
2024/03/03 00:18:37;;;;;;;12.63;6.30;;;;;;;7.90;100.00;94914.75;5028964;28;20049;-72
2024/03/03 00:21:04;;;;;;;11.38;5.82;;;;;;;7.76;100.00;94916.34;5019087;28;20116;-72
2024/03/03 00:23:29;;;;;;;12.27;6.55;;;;;;;7.91;100.00;94908.13;5022423;28;20046;-72
2024/03/03 00:25:54;;;;;;;11.35;6.13;;;;;;;7.89;100.00;94924.88;5021009;28;20048;-72
2024/03/03 00:28:20;;;;;;;11.65;5.72;;;;;;;7.98;100.00;94919.78;5017352;28;20845;-72
2024/03/03 00:30:46;;;;;;;13.60;6.28;;;;;;;8.14;100.00;94913.09;5023304;28;20447;-71
2024/03/03 00:33:11;;;;;;;13.93;6.32;;;;;;;7.88;100.00;94906.19;5025922;28;20037;-71
2024/03/03 00:35:36;;;;;;;9.65;5.47;;;;;;;7.76;100.00;94902.69;5014737;28;20419;-71
2024/03/03 00:38:02;;;;;;;9.43;5.70;;;;;;;7.76;100.00;94902.69;4997546;28;20041;-72
2024/03/03 00:40:28;;;;;;;12.48;6.75;;;;;;;7.70;100.00;94895.31;5003947;28;20504;-71
2024/03/03 00:42:53;;;;;;;10.60;5.60;;;;;;;7.76;100.00;94899.19;5002440;28;20584;-72
2024/03/03 00:45:19;;;;;;;10.73;5.15;;;;;;;7.85;100.00;94894.13;4996527;28;20049;-72
2024/03/03 00:47:44;;;;;;;10.70;5.03;;;;;;;7.83;100.00;94894.50;4998832;28;20128;-71
2024/03/03 00:50:11;;;;;;;11.18;5.30;;;;;;;7.87;100.00;94886.34;4995664;28;20087;-71
2024/03/03 00:52:36;;;;;;;9.38;4.95;;;;;;;7.75;100.00;94890.25;5010573;28;20038;-72
2024/03/03 00:55:02;;;;;;;9.80;5.00;;;;;;;7.65;100.00;94872.75;4997863;28;20040;-69
2024/03/03 00:57:28;;;;;;;11.18;4.93;;;;;;;7.76;100.00;94880.91;5000448;28;20038;-71
2024/03/03 00:59:53;;;;;;;8.02;4.63;;;;;;;7.77;100.00;94876.22;5001892;28;20045;-70
2024/03/03 01:02:18;;;;;;;7.70;4.60;;;;;;;7.93;100.00;94881.25;5011083;28;20030;-70
2024/03/03 01:04:44;;;;;;;7.97;4.43;;;;;;;8.01;100.00;94882.78;5001895;28;20034;-71
2024/03/03 01:07:09;;;;;;;9.82;4.25;;;;;;;8.11;100.00;94875.75;4996320;28;20050;-72
2024/03/03 01:09:35;;;;;;;9.80;4.68;;;;;;;8.16;100.00;94878.06;4993682;28;20038;-70
2024/03/03 01:12:00;;;;;;;7.75;4.60;;;;;;;8.04;100.00;94871.84;4994696;28;20396;-70
2024/03/03 01:14:26;;;;;;;10.52;5.28;;;;;;;7.98;100.00;94864.50;5003564;28;20051;-69
2024/03/03 01:16:51;;;;;;;9.55;5.10;;;;;;;7.95;100.00;94860.59;5001174;28;20044;-70
2024/03/03 01:19:17;;;;;;;9.80;4.70;;;;;;;7.98;100.00;94861.78;4996273;28;20067;-71
2024/03/03 01:21:42;;;;;;;8.20;4.90;;;;;;;7.75;100.00;94848.59;5001044;28;20050;-71
2024/03/03 01:24:07;;;;;;;6.65;4.50;;;;;;;7.72;100.00;94844.69;4995313;28;20065;-71
2024/03/03 01:26:33;;;;;;;10.50;4.43;;;;;;;7.71;100.00;94850.56;4999938;28;20419;-71
2024/03/03 01:28:58;;;;;;;9.13;4.47;;;;;;;7.65;100.00;94852.88;5001893;28;20200;-70
2024/03/03 01:31:23;;;;;;;8.35;4.50;;;;;;;7.60;100.00;94851.34;4998205;28;20073;-69
2024/03/03 01:33:49;;;;;;;8.25;4.40;;;;;;;7.52;100.00;94847.06;5000828;28;20042;-70
2024/03/03 01:36:16;;;;;;;8.85;4.50;;;;;;;7.58;100.00;94850.97;4996396;28;20068;-70
2024/03/03 01:38:41;;;;;;;6.97;3.90;;;;;;;7.55;100.00;94845.53;5003940;28;20060;-69
2024/03/03 01:41:07;;;;;;;8.85;4.35;;;;;;;7.57;100.00;94838.50;4998972;28;20497;-71
2024/03/03 01:43:33;;;;;;;7.45;4.30;;;;;;;7.50;100.00;94851.38;5003533;28;20073;-72
2024/03/03 01:45:58;;;;;;;7.68;4.18;;;;;;;7.52;100.00;94843.56;4995579;28;20230;-71
2024/03/03 01:48:24;;;;;;;8.02;4.57;;;;;;;7.63;100.00;94847.84;4999246;28;20038;-71
2024/03/03 01:50:50;;;;;;;8.60;4.45;;;;;;;7.66;100.00;94836.13;5003902;28;20033;-71
2024/03/03 01:53:17;;;;;;;8.77;4.20;;;;;;;7.74;100.00;94841.56;4998795;28;20374;-71
2024/03/03 01:55:43;;;;;;;8.15;5.10;;;;;;;7.82;100.00;94832.22;5005919;28;20060;-71
2024/03/03 01:58:10;;;;;;;9.48;4.53;;;;;;;7.85;100.00;94818.56;4999239;28;20046;-71
2024/03/03 02:00:36;;;;;;;8.18;4.07;;;;;;;7.92;100.00;94836.06;5003825;28;20057;-69
2024/03/03 02:03:05;;;;;;;6.93;3.78;;;;;;;8.01;100.00;94837.22;5000850;28;20041;-70
2024/03/03 02:05:36;;;;;;;8.23;5.00;;;;;;;7.91;100.00;94829.09;4999867;28;20120;-72
2024/03/03 02:08:04;;;;;;;11.43;5.13;;;;;;;7.84;100.00;94829.88;4995915;28;20477;-72
2024/03/03 02:10:31;;;;;;;8.10;4.47;;;;;;;7.91;100.00;94827.13;4994305;28;20045;-72
2024/03/03 02:12:56;;;;;;;11.45;4.95;;;;;;;7.76;100.00;94826.41;5002745;28;20128;-70
2024/03/03 02:15:22;;;;;;;9.82;4.78;;;;;;;7.67;100.00;94823.31;4998505;28;21053;-71
2024/03/03 02:17:49;;;;;;;10.45;5.20;;;;;;;7.56;100.00;94825.25;5002831;28;20034;-71
2024/03/03 02:20:15;;;;;;;13.88;5.63;;;;;;;7.53;100.00;94817.91;4999332;28;20440;-71
2024/03/03 02:22:40;;;;;;;9.35;4.70;;;;;;;7.55;100.00;94824.50;5002397;28;20029;-70
2024/03/03 02:25:08;;;;;;;9.35;4.35;;;;;;;7.58;100.00;94828.38;4998121;28;20833;-70
2024/03/03 02:27:35;;;;;;;7.85;4.72;;;;;;;7.55;100.00;94829.94;5001743;28;20042;-70
2024/03/03 02:30:03;;;;;;;12.95;5.43;;;;;;;7.50;100.00;94832.28;5003746;28;20096;-72
2024/03/03 02:32:29;;;;;;;7.68;4.72;;;;;;;7.65;100.00;94829.16;5005152;28;20045;-71
2024/03/03 02:34:55;;;;;;;9.50;5.00;;;;;;;7.46;100.00;94815.97;5001746;28;20049;-71
2024/03/03 02:37:20;;;;;;;9.13;5.45;;;;;;;7.34;100.00;94817.13;4998026;28;29097;-72
2024/03/03 02:39:46;;;;;;;8.93;4.80;;;;;;;7.36;100.00;94814.78;5018221;28;20061;-71
2024/03/03 02:42:11;;;;;;;9.52;5.55;;;;;;;7.42;100.00;94820.63;4996396;28;20038;-72
2024/03/03 02:44:37;;;;;;;9.77;5.28;;;;;;;7.44;100.00;94818.31;5000984;28;20041;-71
2024/03/03 02:47:02;;;;;;;10.38;5.35;;;;;;;7.38;100.00;94819.84;4998246;28;20038;-69
2024/03/03 02:49:28;;;;;;;11.18;5.50;;;;;;;7.48;100.00;94824.50;4985097;28;20046;-71
2024/03/03 02:51:54;;;;;;;10.23;4.22;;;;;;;7.78;100.00;94826.78;5002522;28;20037;-72
2024/03/03 02:54:20;;;;;;;9.77;4.72;;;;;;;7.65;100.00;94812.00;4999264;28;20041;-71
2024/03/03 02:56:46;;;;;;;9.35;5.32;;;;;;;7.60;100.00;94818.66;5002730;28;20092;-72
2024/03/03 02:59:11;;;;;;;11.60;5.05;;;;;;;7.69;100.00;94825.63;4997072;28;20147;-70
2024/03/03 03:01:36;;;;;;;9.40;4.90;;;;;;;7.59;100.00;94824.50;5002817;28;20046;-71
2024/03/03 03:04:02;;;;;;;9.40;5.20;;;;;;;7.34;100.00;94810.91;4998488;28;20056;-70
2024/03/03 03:06:27;;;;;;;9.18;4.72;;;;;;;7.34;100.00;94808.19;5009327;28;20034;-70
2024/03/03 03:08:53;;;;;;;11.77;4.78;;;;;;;7.37;100.00;94812.88;5001930;28;20049;-70
2024/03/03 03:11:18;;;;;;;7.55;4.85;;;;;;;7.53;100.00;94807.78;4994229;28;20038;-70
2024/03/03 03:13:44;;;;;;;9.35;5.75;;;;;;;7.42;100.00;94809.75;5002276;28;20075;-70
2024/03/03 03:16:09;;;;;;;11.13;5.35;;;;;;;7.41;100.00;94802.72;4997212;28;20046;-71
2024/03/03 03:18:35;;;;;;;9.35;5.25;;;;;;;7.39;100.00;94805.06;5002630;28;20065;-72
2024/03/03 03:21:04;;;;;;;9.95;4.85;;;;;;;7.48;100.00;94802.72;5003384;28;20042;-70
2024/03/03 03:23:29;;;;;;;9.00;5.07;;;;;;;7.46;100.00;94807.78;5005677;28;20046;-70
2024/03/03 03:25:54;;;;;;;8.95;4.80;;;;;;;7.51;100.00;94809.31;5018554;28;20044;-71
2024/03/03 03:28:20;;;;;;;7.53;4.75;;;;;;;7.35;100.00;94802.34;5020215;28;21463;-72
2024/03/03 03:30:46;;;;;;;9.15;4.82;;;;;;;7.31;100.00;94806.25;5011739;28;20555;-71
2024/03/03 03:33:11;;;;;;;7.88;4.38;;;;;;;7.30;100.00;94812.88;5024206;28;20085;-71
2024/03/03 03:35:37;;;;;;;7.70;4.55;;;;;;;7.25;100.00;94817.53;5021224;28;20061;-71
2024/03/03 03:38:03;;;;;;;9.38;4.80;;;;;;;7.17;100.00;94817.94;5019227;28;20044;-71
2024/03/03 03:40:29;;;;;;;7.68;4.53;;;;;;;7.19;100.00;94819.09;5022230;28;20084;-71
2024/03/03 03:42:54;;;;;;;7.22;4.13;;;;;;;7.34;100.00;94814.41;5022702;28;20614;-71
2024/03/03 03:45:19;;;;;;;7.03;4.40;;;;;;;7.23;100.00;94810.94;5018578;28;20045;-70
2024/03/03 03:47:45;;;;;;;7.20;4.38;;;;;;;7.12;100.00;94802.78;5022743;28;20029;-70
2024/03/03 03:50:10;;;;;;;9.30;4.20;;;;;;;7.16;100.00;94802.78;5016919;28;20038;-70
2024/03/03 03:52:36;;;;;;;8.38;4.57;;;;;;;7.17;100.00;94809.78;5022058;28;20391;-71
2024/03/03 03:55:02;;;;;;;7.85;4.90;;;;;;;7.17;100.00;94807.81;5019251;28;20041;-70
2024/03/03 03:57:28;;;;;;;10.85;5.15;;;;;;;7.04;100.00;94807.44;5019694;28;20045;-72
2024/03/03 03:59:54;;;;;;;9.00;5.38;;;;;;;6.98;100.00;94817.16;5021871;28;20072;-72
2024/03/03 04:02:19;;;;;;;8.15;4.53;;;;;;;6.98;100.00;94819.09;5029125;28;20073;-71
2024/03/03 04:04:44;;;;;;;8.00;4.55;;;;;;;7.05;100.00;94819.88;4996929;28;20037;-71
2024/03/03 04:07:11;;;;;;;8.00;4.55;;;;;;;6.97;100.00;94821.06;4998490;28;20080;-71
2024/03/03 04:09:37;;;;;;;9.77;4.53;;;;;;;6.97;100.00;94817.53;5001472;28;20666;-71
2024/03/03 04:12:03;;;;;;;7.47;4.82;;;;;;;6.94;100.00;94810.94;4998238;28;20038;-72
2024/03/03 04:14:29;;;;;;;9.63;5.43;;;;;;;6.97;100.00;94818.34;4999585;28;20049;-71
2024/03/03 04:16:54;;;;;;;7.72;4.55;;;;;;;6.94;100.00;94810.94;4997865;28;20112;-72
2024/03/03 04:19:20;;;;;;;7.50;4.50;;;;;;;6.94;100.00;94812.91;4988504;28;20111;-70
2024/03/03 04:21:45;;;;;;;7.88;4.65;;;;;;;6.98;100.00;94819.09;4991525;28;20170;-70
2024/03/03 04:24:11;;;;;;;9.48;5.30;;;;;;;6.88;100.00;94810.56;5019424;23;20046;-68
2024/03/03 04:26:37;;;;;;;8.25;4.60;;;;;;;6.91;100.00;94817.16;4993426;28;20044;-69
2024/03/03 04:29:03;;;;;;;7.88;4.53;;;;;;;6.94;100.00;94821.06;4987721;28;20042;-68
2024/03/03 04:31:29;;;;;;;8.73;5.00;;;;;;;7.01;100.00;94826.50;4996378;28;20046;-69
2024/03/03 04:33:54;;;;;;;8.93;4.50;;;;;;;6.97;100.00;94823.00;4986485;28;20357;-70
2024/03/03 04:36:20;;;;;;;6.30;4.13;;;;;;;7.11;100.00;94822.97;4978157;28;20046;-70
2024/03/03 04:38:45;;;;;;;7.60;3.97;;;;;;;7.18;100.00;94825.69;4978441;28;20125;-70
2024/03/03 04:41:16;;;;;;;10.75;4.57;;;;;;;7.21;100.00;94830.38;4985356;28;20054;-70
2024/03/03 04:43:42;;;;;;;6.63;3.95;;;;;;;7.29;100.00;94839.31;4979626;28;20046;-70
2024/03/03 04:46:08;;;;;;;11.80;6.18;;;;;;;7.29;100.00;94833.88;4982754;28;20496;-69
2024/03/03 04:48:35;;;;;;;6.72;3.75;;;;;;;7.20;100.00;94825.31;4978217;28;20061;-70
2024/03/03 04:51:00;;;;;;;6.70;3.47;;;;;;;7.05;100.00;94821.84;4980216;28;20566;-70
2024/03/03 04:53:26;;;;;;;7.10;4.03;;;;;;;7.00;100.00;94822.22;4973742;28;20157;-71
2024/03/03 04:55:51;;;;;;;6.40;4.03;;;;;;;7.00;100.00;94819.50;4975276;28;20149;-71
2024/03/03 04:58:17;;;;;;;5.47;3.95;;;;;;;7.02;100.00;94815.22;4972223;28;20874;-69
2024/03/03 05:00:42;;;;;;;6.95;3.88;;;;;;;6.99;100.00;94815.22;4978309;28;20054;-70
2024/03/03 05:03:09;;;;;;;6.40;4.10;;;;;;;7.08;100.00;94815.63;4972411;28;20053;-71
2024/03/03 05:05:35;;;;;;;6.10;3.60;;;;;;;7.20;100.00;94815.22;4979520;28;20559;-70
2024/03/03 05:08:00;;;;;;;6.70;3.67;;;;;;;7.17;100.00;94816.00;4983231;28;20046;-69
2024/03/03 05:10:26;;;;;;;5.65;3.67;;;;;;;7.08;100.00;94810.16;4985031;28;20138;-69
2024/03/03 05:12:51;;;;;;;7.82;3.65;;;;;;;7.19;100.00;94821.06;4977336;28;20054;-69
2024/03/03 05:15:17;;;;;;;7.57;4.50;;;;;;;7.18;100.00;94814.81;5007372;28;20034;-66
2024/03/03 05:17:42;;;;;;;6.97;3.95;;;;;;;7.08;100.00;94810.94;4967606;28;20052;-69
2024/03/03 05:20:08;;;;;;;7.10;3.92;;;;;;;7.06;100.00;94813.28;4974885;28;20081;-69
2024/03/03 05:22:33;;;;;;;7.70;4.07;;;;;;;7.22;100.00;94815.59;4962774;28;20114;-68
2024/03/03 05:24:59;;;;;;;6.90;3.85;;;;;;;7.35;100.00;94815.22;4975980;28;20049;-69
2024/03/03 05:27:24;;;;;;;5.70;3.70;;;;;;;7.24;100.00;94810.53;4973714;28;20504;-68
2024/03/03 05:29:51;;;;;;;6.95;3.53;;;;;;;7.09;100.00;94811.72;4995925;28;20548;-69
2024/03/03 05:32:16;;;;;;;5.80;4.07;;;;;;;7.07;100.00;94811.31;4976686;28;20047;-69
2024/03/03 05:34:42;;;;;;;4.82;3.22;;;;;;;7.19;100.00;94813.66;4978815;28;20054;-69
2024/03/03 05:37:09;;;;;;;5.80;3.47;;;;;;;7.13;100.00;94809.78;4974643;28;20050;-69
2024/03/03 05:39:35;;;;;;;7.95;4.68;;;;;;;6.92;100.00;94804.34;4978525;28;20051;-69
2024/03/03 05:42:00;;;;;;;6.22;4.00;;;;;;;7.01;100.00;94816.38;4974944;28;20050;-67
2024/03/03 05:44:26;;;;;;;5.05;3.47;;;;;;;7.06;100.00;94823.41;4966498;28;20739;-67
2024/03/03 05:46:51;;;;;;;5.63;3.38;;;;;;;7.08;100.00;94818.34;4980316;28;20064;-68
2024/03/03 05:49:17;;;;;;;6.15;3.72;;;;;;;7.12;100.00;94829.22;4973521;28;20050;-67
2024/03/03 05:51:42;;;;;;;5.45;3.92;;;;;;;7.26;100.00;94830.00;4977975;28;20064;-68
2024/03/03 05:54:08;;;;;;;5.57;3.47;;;;;;;7.30;100.00;94829.97;4973844;28;20073;-69
2024/03/03 05:56:33;;;;;;;5.55;3.75;;;;;;;7.18;100.00;94831.16;4979224;28;20196;-70
2024/03/03 05:58:59;;;;;;;5.88;3.60;;;;;;;7.19;100.00;94831.94;4974640;28;20044;-69
2024/03/03 06:01:24;;;;;;;5.93;3.63;;;;;;;7.13;100.00;94825.31;4974152;28;20058;-68
2024/03/03 06:03:49;;;;;;;6.95;4.10;;;;;;;7.10;100.00;94829.63;4986633;28;20074;-68
2024/03/03 06:06:15;;;;;;;10.07;3.60;;;;;;;6.99;100.00;94826.88;4969888;28;20086;-68
2024/03/03 06:08:42;;;;;;;6.10;3.47;;;;;;;7.01;100.00;94823.78;4978657;28;20042;-69
2024/03/03 06:11:07;;;;;;;5.90;3.58;;;;;;;7.16;100.00;94821.81;4976917;28;20046;-66
2024/03/03 06:13:34;;;;;;;4.85;3.35;;;;;;;7.18;100.00;94825.69;4976013;28;20056;-70
2024/03/03 06:15:59;;;;;;;4.40;3.10;;;;;;;7.28;100.00;94837.78;4979856;28;20057;-67
2024/03/03 06:18:27;;;;;;;4.75;3.38;;;;;;;7.22;100.00;94828.41;4983445;28;20054;-67
2024/03/03 06:20:53;;;;;;;5.97;3.28;;;;;;;7.25;100.00;94831.16;4979634;28;20050;-70
2024/03/03 06:23:19;;;;;;;4.97;3.47;;;;;;;7.17;100.00;94821.44;4976110;28;20419;-69
2024/03/03 06:25:44;;;;;;;5.53;3.47;;;;;;;7.11;100.00;94822.97;4979898;28;20492;-71
2024/03/03 06:28:10;;;;;;;5.40;3.72;;;;;;;7.14;100.00;94835.81;4974034;28;20053;-70
2024/03/03 06:30:35;;;;;;;5.40;3.60;;;;;;;7.14;100.00;94813.28;4987009;28;20046;-70
2024/03/03 06:33:01;;;;;;;4.57;3.55;;;;;;;7.15;100.00;94820.25;4986538;28;20311;-67
2024/03/03 06:35:27;;;;;;;4.45;3.00;;;;;;;7.20;100.00;94817.94;4975801;28;20654;-69
2024/03/03 06:37:52;;;;;;;5.22;3.17;;;;;;;7.27;100.00;94820.66;4980741;28;20046;-70
2024/03/03 06:40:18;;;;;;;7.75;3.30;;;;;;;7.26;100.00;94818.31;4979545;28;20046;-70
2024/03/03 06:42:44;;;;;;;5.35;3.53;;;;;;;7.33;100.00;94822.97;4983506;28;20046;-73
2024/03/03 06:45:10;;;;;;;4.75;3.00;;;;;;;7.32;100.00;94805.09;4982667;28;20049;-68
2024/03/03 06:47:36;;;;;;;5.97;3.70;;;;;;;7.35;100.00;94815.97;4983851;28;20105;-69
2024/03/03 06:50:03;;;;;;;5.82;3.15;;;;;;;7.42;100.00;94820.63;4979768;28;20050;-69
2024/03/03 06:52:32;;;;;;;4.70;2.75;;;;;;;7.44;100.00;94818.31;4961484;28;20035;-67
2024/03/03 06:55:01;;;;;;;7.45;4.00;;;;;;;7.42;100.00;94817.91;5001633;28;20047;-70
2024/03/03 06:57:27;;;;;;;13.93;6.17;;;;;;;7.42;100.00;94815.19;4985479;28;20452;-70
2024/03/03 06:59:53;;;;;;;6.90;4.40;;;;;;;7.40;100.00;94812.06;4978586;28;20073;-69
2024/03/03 07:02:19;;;;;;;4.20;2.92;;;;;;;7.42;100.00;94815.97;4978345;28;20189;-69
2024/03/03 07:04:45;;;;;;;4.55;2.85;;;;;;;7.43;100.00;94816.72;4982170;28;20046;-69
2024/03/03 07:07:11;;;;;;;4.47;2.97;;;;;;;7.41;100.00;94824.53;4993941;28;20477;-68
2024/03/03 07:09:37;;;;;;;4.50;2.97;;;;;;;7.45;100.00;94819.84;4979829;28;20188;-70
2024/03/03 07:15:24;;;;;;;5.55;3.60;;;;;;;7.47;100.00;94807.41;4972120;28;20046;-69
2024/03/03 07:17:49;;;;;;;5.20;2.85;;;;;;;7.57;100.00;94824.88;4981916;28;20045;-71
2024/03/03 07:20:15;;;;;;;5.65;3.80;;;;;;;7.42;100.00;94823.38;4976379;28;20129;-72
2024/03/03 07:22:41;;;;;;;5.75;2.97;;;;;;;7.45;100.00;94823.34;4980617;28;20081;-67
2024/03/03 07:25:07;;;;;;;6.60;3.03;;;;;;;7.47;100.00;94820.22;4979695;28;20054;-68
2024/03/03 07:27:33;;;;;;;5.80;3.42;;;;;;;7.46;100.00;94818.69;4964169;28;20047;-70
2024/03/03 07:29:58;;;;;;;5.25;3.60;;;;;;;7.49;100.00;94808.94;4986090;28;20058;-70
2024/03/03 07:32:28;;;;;;;5.05;3.40;;;;;;;7.59;100.00;94827.22;5000022;28;20132;-70
2024/03/03 07:34:57;;;;;;;4.18;3.10;;;;;;;7.65;100.00;94831.06;4982139;28;20042;-70
2024/03/03 07:37:22;;;;;;;4.38;3.13;;;;;;;7.63;99.16;94825.25;4972356;28;20868;-70
2024/03/03 07:39:47;;;;;;;6.30;4.45;;;;;;;7.54;100.00;94814.75;4982526;28;20050;-68
2024/03/03 07:42:13;;;;;;;4.43;3.10;;;;;;;7.55;100.00;94799.97;4971413;28;20045;-69
2024/03/03 07:44:38;;;;;;;4.60;3.20;;;;;;;7.62;100.00;94791.78;4975596;28;20069;-70
2024/03/03 07:47:04;;;;;;;3.67;2.65;;;;;;;7.73;100.00;94808.09;4974113;28;20042;-67
2024/03/03 07:49:29;;;;;;;3.88;2.60;;;;;;;7.88;98.63;94803.38;4981823;28;20401;-66
2024/03/03 07:51:54;;;;;;;4.88;2.25;;;;;;;7.99;96.63;94806.06;4978999;28;20533;-69
2024/03/03 07:54:20;;;;;;;4.30;2.60;;;;;;;8.03;96.71;94809.53;4973363;28;20626;-68
2024/03/03 07:56:45;;;;;;;3.90;2.42;;;;;;;8.03;96.59;94809.53;4980405;28;20489;-68
2024/03/03 07:59:12;;;;;;;3.88;2.60;;;;;;;8.10;95.55;94811.47;4971705;28;20048;-69
2024/03/03 08:01:38;;;;;;;4.30;2.50;;;;;;;8.16;94.75;94810.66;4977337;28;20458;-69
2024/03/03 08:04:06;;;;;;;4.30;2.58;;;;;;;8.24;93.18;94811.41;4976671;28;20070;-67
2024/03/03 08:06:32;;;;;;;3.25;2.13;;;;;;;8.35;93.67;94819.53;4982186;28;20599;-70
2024/03/03 08:09:02;;;;;;;3.03;1.83;;;;;;;8.37;92.82;94815.25;4977877;28;20056;-70
2024/03/03 08:11:27;;;;;;;4.82;2.50;;;;;;;8.31;94.36;94816.03;4980800;28;20078;-70
2024/03/03 08:13:53;;;;;;;3.05;2.20;;;;;;;8.41;94.49;94813.25;4975640;28;20081;-70
2024/03/03 08:16:18;;;;;;;4.80;2.78;;;;;;;8.58;93.49;94819.03;4976489;28;20068;-70
2024/03/03 08:18:43;;;;;;;4.10;2.72;;;;;;;8.49;95.16;94814.03;4981786;28;20053;-71
2024/03/03 08:21:12;;;;;;;3.33;2.30;;;;;;;8.86;91.85;94825.47;4984818;28;20050;-70
2024/03/03 08:23:39;;;;;;;4.70;2.40;;;;;;;8.65;94.58;94812.78;4976913;28;20050;-70
2024/03/03 08:26:04;;;;;;;5.63;3.75;;;;;;;8.46;94.88;94814.03;4977011;28;20077;-68
2024/03/03 08:28:34;;;;;;;6.00;4.18;;;;;;;8.48;94.70;94822.59;4983319;28;20446;-69
2024/03/03 08:30:59;;;;;;;8.02;4.30;;;;;;;8.52;93.13;94821.41;4984048;28;20102;-67
2024/03/03 08:33:24;;;;;;;3.70;2.80;;;;;;;8.69;89.80;94827.94;4983546;28;20096;-67
2024/03/03 08:35:50;;;;;;;5.20;2.15;;;;;;;8.85;90.00;94832.13;5002018;28;20050;-69
2024/03/03 08:38:15;;;;;;;5.55;2.22;;;;;;;8.82;90.25;94825.50;4974360;28;20050;-70
2024/03/03 08:40:40;;;;;;;4.05;2.15;;;;;;;8.86;90.50;94820.00;4971849;28;20137;-69
2024/03/03 08:43:06;;;;;;;2.97;2.05;;;;;;;8.90;88.48;94824.28;4974226;28;20056;-70
2024/03/03 08:45:31;;;;;;;2.95;1.70;;;;;;;8.90;88.84;94826.25;4981621;28;20060;-69
2024/03/03 08:47:57;;;;;;;3.17;2.20;;;;;;;8.96;87.37;94822.66;4981873;28;20185;-69
2024/03/03 08:50:22;;;;;;;3.10;2.22;;;;;;;8.92;89.08;94815.69;4975856;28;20614;-69
2024/03/03 08:52:48;;;;;;;3.05;2.00;;;;;;;9.06;87.74;94812.09;4994974;28;20066;-70
2024/03/03 08:55:13;;;;;;;3.28;2.00;;;;;;;9.17;86.05;94819.00;4976277;28;20043;-69
2024/03/03 08:57:38;;;;;;;3.00;1.58;;;;;;;9.41;85.10;94813.72;4979087;28;20074;-71
2024/03/03 09:00:10;;;;;;;3.22;1.83;;;;;;;9.65;81.15;94808.41;4989294;28;20417;-69
2024/03/03 09:02:36;;;;;;;4.38;1.75;;;;;;;9.84;81.18;94816.00;4980140;28;20046;-70
2024/03/03 09:05:01;;;;;;;4.40;1.73;;;;;;;9.91;80.36;94806.94;4980501;28;20049;-68
2024/03/03 09:07:27;;;;;;;2.15;1.38;;;;;;;10.11;76.38;94807.88;4979621;28;20053;-71
2024/03/03 09:09:52;;;;;;;2.75;1.50;;;;;;;10.22;75.53;94804.22;4980615;28;20089;-69
2024/03/03 09:12:17;;;;;;;2.97;1.52;;;;;;;10.20;77.43;94793.69;4991594;28;20049;-68
2024/03/03 09:14:43;;;;;;;2.33;1.48;;;;;;;10.19;78.07;94794.91;4979298;28;20042;-68
2024/03/03 09:17:08;;;;;;;2.20;1.58;;;;;;;10.37;76.34;94793.91;4975831;28;20042;-67
2024/03/03 09:19:34;;;;;;;2.33;1.30;;;;;;;10.73;72.67;94794.16;4979960;28;20049;-67
2024/03/03 09:21:59;;;;;;;2.55;1.48;;;;;;;10.63;73.93;94792.38;4980054;28;20050;-68
2024/03/03 09:24:25;;;;;;;4.22;1.60;;;;;;;10.94;73.98;94795.03;4979752;28;20382;-68
2024/03/03 09:26:51;;;;;;;3.28;1.70;;;;;;;11.04;71.10;94808.56;4984673;28;20077;-69
2024/03/03 09:29:16;;;;;;;2.67;2.03;;;;;;;11.25;69.83;94809.41;4978629;28;20132;-69
2024/03/03 09:31:41;;;;;;;4.65;3.30;;;;;;;11.51;72.33;94798.81;4979926;28;20058;-70
2024/03/03 09:34:07;;;;;;;2.83;1.60;;;;;;;11.52;69.13;94809.31;4993895;28;20048;-69
2024/03/03 09:36:32;;;;;;;4.65;1.33;;;;;;;11.66;66.83;94808.31;4988724;28;20449;-68
2024/03/03 09:38:57;;;;;;;2.13;1.30;;;;;;;12.10;65.69;94802.81;4972461;28;20049;-69
2024/03/03 09:41:24;;;;;;;1.95;0.77;;;;;;;12.34;60.11;94820.75;4973254;28;20506;-70
2024/03/03 09:43:58;;;;;;;2.30;0.88;;;;;;;12.57;58.30;94816.34;4993665;28;20051;-69
2024/03/03 09:46:27;;;;;;;1.83;1.00;;;;;;;12.67;56.68;94812.59;4974203;28;20053;-69
2024/03/03 09:48:55;;;;;;;7.07;1.50;;;;;;;12.92;63.85;94814.00;4979891;28;20073;-68
2024/03/03 09:51:24;;;;;;;1.70;1.58;;;;;;;13.04;58.61;94813.34;4974370;28;21626;-69
2024/03/03 09:53:53;;;;;;;5.38;1.10;;;;;;;12.92;54.19;94822.25;4979500;28;20053;-69
2024/03/03 09:56:20;;;;;;;2.00;1.05;;;;;;;13.22;51.60;94815.66;4977949;28;20041;-70
2024/03/03 09:58:46;;;;;;;2.22;1.13;;;;;;;12.86;51.79;94819.25;4982716;28;20109;-69
2024/03/03 10:01:12;;;;;;;6.43;1.60;;;;;;;12.80;52.34;94802.50;4978725;28;20086;-69
2024/03/03 10:03:40;;;;;;;4.00;1.60;;;;;;;12.67;51.67;94803.56;4983760;28;20049;-68
2024/03/03 10:06:09;;;;;;;5.40;1.15;;;;;;;12.86;49.05;94810.22;4978511;28;20048;-69
2024/03/03 10:08:37;;;;;;;4.95;1.20;;;;;;;13.29;47.36;94807.22;4983648;28;20042;-71
2024/03/03 10:11:06;;;;;;;1.75;0.93;;;;;;;13.48;46.16;94813.84;4981031;28;20091;-69
2024/03/03 10:13:32;;;;;;;1.48;0.82;;;;;;;13.36;45.94;94803.53;4983065;28;20496;-69
2024/03/03 10:16:00;;;;;;;1.50;0.80;;;;;;;13.51;45.48;94806.72;5004293;28;20046;-69
2024/03/03 10:18:25;;;;;;;2.40;0.80;;;;;;;13.38;45.07;94812.16;4979232;28;20449;-70
2024/03/03 10:20:55;;;;;;;1.67;0.65;;;;;;;13.29;46.24;94799.00;4983718;28;20149;-69
2024/03/03 10:23:21;;;;;;;3.22;1.38;;;;;;;13.31;45.94;94810.34;4977488;28;20050;-70
2024/03/03 10:25:57;;;;;;;3.97;1.00;;;;;;;13.76;43.30;94812.34;4991554;28;20528;-68
2024/03/03 10:28:22;;;;;;;4.32;1.60;;;;;;;13.75;45.26;94810.78;4978850;28;20054;-69
2024/03/03 10:30:48;;;;;;;4.15;1.23;;;;;;;14.14;44.14;94810.97;4983209;28;20042;-69
2024/03/03 10:33:13;;;;;;;2.42;0.70;;;;;;;14.23;42.79;94811.09;4979640;28;20038;-69
2024/03/03 10:35:39;;;;;;;2.45;0.90;;;;;;;14.44;42.30;94808.91;4983808;28;20509;-69
2024/03/03 10:38:08;;;;;;;1.70;0.88;;;;;;;13.89;44.49;94809.66;4978226;28;20077;-67
2024/03/03 10:40:33;;;;;;;1.05;0.90;;;;;;;13.80;45.64;94806.75;5003393;23;20056;-75
2024/03/03 10:42:59;;;;;;;3.05;1.42;;;;;;;13.87;43.44;94812.06;4982222;28;20774;-73
2024/03/03 10:45:24;;;;;;;2.28;1.05;;;;;;;14.21;43.78;94807.25;4993819;28;20108;-73
2024/03/03 10:47:51;;;;;;;2.50;1.20;;;;;;;14.57;40.87;94803.44;4997190;28;20042;-72
2024/03/03 10:50:21;;;;;;;3.03;1.45;;;;;;;14.71;41.16;94803.03;4977460;28;20460;-74
2024/03/03 10:52:49;;;;;;;9.27;4.53;;;;;;;14.65;41.33;94800.06;4972481;28;20420;-73
2024/03/03 10:55:14;;;;;;;2.65;1.13;;;;;;;14.85;39.75;94797.09;4958816;28;20049;-72
2024/03/03 10:57:42;;;;;;;2.78;1.25;;;;;;;14.65;40.41;94800.06;4970329;28;20054;-71
2024/03/03 11:00:14;;;;;;;6.18;2.75;;;;;;;14.71;41.41;94786.50;4977160;28;20077;-72
2024/03/03 11:02:41;;;;;;;5.78;2.10;;;;;;;15.02;38.83;94797.00;4974324;28;20158;-73
2024/03/03 11:05:07;;;;;;;6.53;2.80;;;;;;;15.32;39.45;94792.09;4970815;28;20045;-73
2024/03/03 11:07:36;;;;;;;2.80;1.35;;;;;;;15.80;37.77;94796.41;4974644;28;20054;-72
2024/03/03 11:10:03;;;;;;;6.13;2.80;;;;;;;15.96;37.39;94791.94;4965480;28;20452;-76
2024/03/03 11:12:32;;;;;;;5.45;1.77;;;;;;;16.04;38.12;94790.47;4990525;28;20053;-73
2024/03/03 11:15:04;;;;;;;7.00;1.73;;;;;;;15.08;40.07;94782.19;4979858;28;20396;-72
2024/03/03 11:17:32;;;;;;;4.90;1.90;;;;;;;15.48;38.62;94792.75;4970793;28;20093;-72
2024/03/03 11:20:02;;;;;;;4.85;1.73;;;;;;;15.44;39.58;94786.56;4962623;28;20043;-72
2024/03/03 11:22:35;;;;;;;10.13;4.03;;;;;;;15.71;39.51;94784.50;4960989;28;20682;-73
2024/03/03 11:25:06;;;;;;;2.42;0.82;;;;;;;15.37;39.97;94773.00;4978864;28;20401;-77
2024/03/03 11:27:38;;;;;;;5.97;1.88;;;;;;;16.39;38.44;94773.81;4979443;28;20064;-74
2024/03/03 11:30:05;;;;;;;2.45;1.00;;;;;;;16.78;37.70;94783.41;4977330;28;20034;-74
2024/03/03 11:32:33;;;;;;;2.28;1.35;;;;;;;15.86;37.98;94780.84;4965604;28;20057;-72